Terminal Aerodrome Forecast
Issued by NWS

Home | Current Version | Previous Version | Text Only | Print | Product List | Glossary On
Versions: 1 2 3 4 5 6 7 8 9 10 11 12 13
000
FTUS43 KAPX 290520
TAFAPN
TAF
KAPN 290520Z 2906/3006 VRB03KT P6SM SCT150 BKN250
     FM291500 06009KT P6SM FEW040 SCT250
     FM300100 00000KT P6SM SKC=

USA.gov is the U.S. government's official web portal to all federal, state and local government web resources and services.